Solana — WCY5602 — position and weather

sailwx.info

Track history (hours):
 
Tides and Currents Weather Stations Pressure Air Temp Water Temp Dewpoint Dewpoint Depression Visibility Wind Speed Wind Dir Waves Ship Positions

Solana

Owner: TAURUS MARINE, SAN FRANCISCO, CA. More information available from US FCC via Universal Licensing System and Coast Guard Vessel Documentation Center.

Last reported at 2016-Jun-25 20:33 UTC. Time now 2016-Jun-26 08:27 UTC.
Position N 47°34' W 122°21'.

Length 21 m; draft 3 m.

Type: Tug. MMSI: 366969740.

Date/timePositionNaut miles runAvg speedWind from/ knotsBaromVisibWave heightAir tempDewpointWater temp
2016-Jun-25 20:33N 47°34' W 122°21'3 2.5
2016-Jun-25 19:33N 47°36' W 122°23'4 4.4
2016-Jun-25 18:33N 47°40' W 122°26'2 1.5
2016-Jun-25 17:33N 47°40' W 122°24'2 1.8
2016-Jun-25 16:33N 47°39' W 122°22'4 3.6
2016-Jun-25 15:32N 47°39' W 122°16'2 2.1
2016-Jun-25 14:29N 47°39' W 122°19'1 0.9
2016-Jun-25 13:33N 47°39' W 122°20'0 0.0
2016-Jun-25 12:33N 47°39' W 122°20'0 0.0
2016-Jun-25 11:33N 47°39' W 122°20'0 0.0
2016-Jun-25 10:33N 47°39' W 122°20'0 0.0
2016-Jun-25 09:33N 47°39' W 122°20'0 0.0
2016-Jun-25 08:33N 47°39' W 122°20'0 0.0
2016-Jun-25 07:33N 47°39' W 122°20'0 0.0
2016-Jun-25 06:33N 47°39' W 122°20'0 0.0
2016-Jun-25 05:31N 47°39' W 122°20'0 0.0
2016-Jun-25 04:28N 47°39' W 122°20'0 0.0
2016-Jun-25 03:33N 47°39' W 122°20'0 0.0
2016-Jun-25 02:33N 47°39' W 122°20'0 0.0
2016-Jun-25 01:33N 47°39' W 122°20'0 0.0
2016-Jun-25 00:32N 47°39' W 122°20'2 1.7
2016-Jun-24 23:33N 47°39' W 122°18'2 2.4
2016-Jun-24 22:33N 47°38' W 122°15'0 0.0
2016-Jun-24 21:33N 47°38' W 122°15'3 2.7
2016-Jun-24 20:33N 47°41' W 122°15'4 4.1
2016-Jun-24 19:33N 47°45' W 122°16'1 1.0
2016-Jun-24 18:33N 47°44' W 122°16'5 5.1
2016-Jun-24 17:33N 47°39' W 122°16'1 0.8
2016-Jun-24 16:33N 47°39' W 122°15'0 0.4
2016-Jun-24 15:33N 47°38' W 122°15'1 0.6
2016-Jun-24 14:33N 47°38' W 122°15'0 0.0
2016-Jun-24 13:31N 47°38' W 122°15'1 0.7
2016-Jun-24 12:33N 47°39' W 122°15'3 3.4
2016-Jun-24 11:33N 47°39' W 122°20'0 0.0
2016-Jun-24 10:33N 47°39' W 122°20'0 0.0
2016-Jun-24 09:33N 47°39' W 122°20'0 0.0
2016-Jun-24 08:33N 47°39' W 122°20'1 1.0
2016-Jun-24 07:33N 47°39' W 122°22'9 3.0
2016-Jun-24 04:34N 47°34' W 122°32'6 6.4
2016-Jun-24 03:33N 47°39' W 122°28'8 7.8
2016-Jun-24 02:34N 47°47' W 122°25'8 8.1
2016-Jun-24 01:34N 47°55' W 122°21'7 7.1
2016-Jun-24 00:33N 48°02' W 122°22'18 3.5
2016-Jun-23 19:12N 48°17' W 122°37'0 0.0
2016-Jun-23 18:32N 48°17' W 122°37'0 0.0
2016-Jun-23 17:33N 48°17' W 122°37'0 0.0
2016-Jun-23 16:26N 48°17' W 122°37'0 0.0
2016-Jun-23 14:22N 48°17' W 122°37'8 2.6
2016-Jun-23 11:21N 48°10' W 122°33'4 4.7
2016-Jun-23 10:25N 48°06' W 122°29'5 5.8
2016-Jun-23 09:33N 48°03' W 122°23'5 5.3
2016-Jun-23 08:34N 47°58' W 122°20'5 4.8
2016-Jun-23 07:34N 47°54' W 122°22'11 5.4
2016-Jun-23 05:33N 47°43' W 122°26'7 6.5
2016-Jun-23 04:34N 47°37' W 122°27'5 4.6
2016-Jun-23 03:33N 47°34' W 122°32'7 6.6
2016-Jun-23 02:34N 47°39' W 122°27'3 3.4
2016-Jun-23 01:33N 47°39' W 122°22'2 2.0
2016-Jun-23 00:26N 47°39' W 122°18'2 2.3
2016-Jun-22 23:32N 47°39' W 122°15'0 0.0
2016-Jun-22 22:33N 47°39' W 122°15'1 0.6
2016-Jun-22 21:33N 47°38' W 122°15'0 0.4
2016-Jun-22 20:31N 47°38' W 122°15'0 0.3
2016-Jun-22 19:24N 47°39' W 122°15'0 0.1
2016-Jun-22 18:33N 47°39' W 122°15'0 0.3
2016-Jun-22 17:28N 47°39' W 122°15'0 0.4
2016-Jun-22 16:33N 47°39' W 122°15'0 0.2
2016-Jun-22 15:32N 47°39' W 122°15'0 0.2
2016-Jun-22 14:33N 47°39' W 122°15'0 0.0
2016-Jun-22 13:33N 47°39' W 122°15'2 1.5
2016-Jun-22 12:30N 47°39' W 122°17'2 2.6
2016-Jun-22 11:34N 47°39' W 122°20'0 0.0
2016-Jun-22 10:33N 47°39' W 122°20'0 0.0
2016-Jun-22 09:33N 47°39' W 122°20'0 0.0
2016-Jun-22 08:33N 47°39' W 122°20'0 0.0
2016-Jun-22 07:33N 47°39' W 122°20'0 0.0
2016-Jun-22 06:33N 47°39' W 122°20'0 0.0
2016-Jun-22 05:33N 47°39' W 122°20'0 0.0
2016-Jun-22 04:33N 47°39' W 122°20'0 0.0
2016-Jun-22 03:33N 47°39' W 122°20'0 0.0
2016-Jun-22 02:33N 47°39' W 122°20'0 0.0
2016-Jun-22 01:33N 47°39' W 122°20'0 0.0
2016-Jun-22 00:33N 47°39' W 122°20'0 0.0
2016-Jun-21 23:33N 47°39' W 122°20'0 0.0
2016-Jun-21 22:32N 47°39' W 122°20'0 0.0
2016-Jun-21 21:33N 47°39' W 122°20'0 0.0
2016-Jun-21 20:33N 47°39' W 122°20'1 0.9
2016-Jun-21 19:33N 47°39' W 122°19'3 3.2
2016-Jun-21 18:33N 47°38' W 122°15'0 0.4
2016-Jun-21 17:33N 47°38' W 122°15'0 0.2
2016-Jun-21 16:33N 47°38' W 122°15'4 4.0
2016-Jun-21 15:33N 47°39' W 122°20'0 0.0
2016-Jun-21 14:33N 47°39' W 122°20'0 0.0
2016-Jun-21 13:33N 47°39' W 122°20'0 0.0
2016-Jun-21 12:33N 47°39' W 122°20'0 0.0
2016-Jun-21 11:33N 47°39' W 122°20'0 0.0
2016-Jun-21 10:33N 47°39' W 122°20'0 0.0
2016-Jun-21 09:33N 47°39' W 122°20'0 0.0
2016-Jun-21 08:33N 47°39' W 122°20'0 0.0
2016-Jun-21 07:34N 47°39' W 122°20'0 0.0
2016-Jun-21 05:33N 47°39' W 122°20'0 0.0
2016-Jun-21 04:33N 47°39' W 122°20'0 0.0
2016-Jun-21 03:33N 47°39' W 122°20'0 0.0
2016-Jun-21 02:33N 47°39' W 122°20'0 0.0
2016-Jun-21 01:33N 47°39' W 122°20'0 0.0
2016-Jun-21 00:33N 47°39' W 122°20'3 2.7
2016-Jun-20 23:32N 47°38' W 122°16'1 1.2
2016-Jun-20 22:33N 47°38' W 122°15'0 0.1
2016-Jun-20 21:33N 47°38' W 122°15'0 0.1
2016-Jun-20 20:33N 47°38' W 122°15'0 0.1
2016-Jun-20 19:33N 47°38' W 122°15'0 0.1
2016-Jun-20 18:33N 47°38' W 122°15'0 0.1
2016-Jun-20 17:30N 47°38' W 122°15'0 0.0
2016-Jun-20 16:33N 47°38' W 122°15'1 1.1
2016-Jun-20 15:33N 47°39' W 122°16'1 0.8
2016-Jun-20 14:33N 47°39' W 122°15'1 0.8
2016-Jun-20 13:33N 47°38' W 122°15'2 1.6
2016-Jun-20 12:32N 47°39' W 122°17'2 2.4
2016-Jun-20 11:33N 47°39' W 122°20'0 0.0
2016-Jun-20 10:33N 47°39' W 122°20'0 0.0
2016-Jun-20 09:34N 47°39' W 122°20'0 0.0
2016-Jun-20 08:33N 47°39' W 122°20'0 0.0
2016-Jun-20 07:33N 47°39' W 122°20'0 0.0
2016-Jun-20 06:33N 47°39' W 122°20'0 0.0
2016-Jun-20 05:33N 47°39' W 122°20'0 0.0
2016-Jun-20 04:32N 47°39' W 122°20'0 0.0
2016-Jun-20 03:33N 47°39' W 122°20'0 0.0
2016-Jun-20 02:33N 47°39' W 122°20'0 0.0
2016-Jun-20 01:33N 47°39' W 122°20'0 0.0
2016-Jun-20 00:33N 47°39' W 122°20'0 0.0
2016-Jun-19 23:33N 47°39' W 122°20'0 0.0
2016-Jun-19 22:32N 47°39' W 122°20'0 0.0
2016-Jun-19 21:32N 47°39' W 122°20'0 0.0
2016-Jun-19 20:33N 47°39' W 122°20'0 0.0
2016-Jun-19 19:33N 47°39' W 122°20'0 0.0
2016-Jun-19 18:33N 47°39' W 122°20'0 0.0
2016-Jun-19 17:33N 47°39' W 122°20'0 0.0
2016-Jun-19 16:33N 47°39' W 122°20'0 0.0
2016-Jun-19 15:33N 47°39' W 122°20'0 0.0
2016-Jun-19 14:33N 47°39' W 122°20'0 0.0
2016-Jun-19 13:33N 47°39' W 122°20'0 0.0
2016-Jun-19 12:33N 47°39' W 122°20'0 0.0
2016-Jun-19 11:33N 47°39' W 122°20'0 0.0
2016-Jun-19 10:33N 47°39' W 122°20'0 0.0
2016-Jun-19 09:33N 47°39' W 122°20'0 0.0
2016-Jun-19 08:33N 47°39' W 122°20'0 0.0
2016-Jun-19 07:33N 47°39' W 122°20'0 0.0
2016-Jun-19 06:33N 47°39' W 122°20'0 0.0
2016-Jun-19 05:33N 47°39' W 122°20'0 0.0
2016-Jun-19 04:33N 47°39' W 122°20'0 0.0
2016-Jun-19 03:33N 47°39' W 122°20'4 3.7
2016-Jun-19 02:31N 47°38' W 122°15'1 0.9
2016-Jun-19 01:33N 47°38' W 122°16'1 1.0
2016-Jun-19 00:33N 47°38' W 122°15'0 0.0
2016-Jun-18 23:32N 47°38' W 122°15'0 0.0
2016-Jun-18 22:30N 47°38' W 122°15'0 0.1
2016-Jun-18 21:33N 47°38' W 122°15'0 0.0
2016-Jun-18 20:33N 47°38' W 122°15'1 0.7
2016-Jun-18 19:33N 47°39' W 122°15'4 4.4
2016-Jun-18 18:33N 47°43' W 122°16'4 4.1
2016-Jun-18 17:34N 47°39' W 122°15'1 0.7
2016-Jun-18 16:33N 47°39' W 122°16'1 0.8
2016-Jun-18 15:31N 47°38' W 122°15'0 0.3
2016-Jun-18 14:33N 47°38' W 122°15'0 0.2
2016-Jun-18 13:33N 47°38' W 122°15'2 1.5
2016-Jun-18 12:33N 47°39' W 122°17'2 2.5
2016-Jun-18 11:33N 47°39' W 122°20'0 0.0
2016-Jun-18 10:33N 47°39' W 122°20'0 0.0
2016-Jun-18 09:32N 47°39' W 122°20'0 0.0
2016-Jun-18 08:33N 47°39' W 122°20'0 0.0
2016-Jun-18 07:32N 47°39' W 122°20'0 0.0
2016-Jun-18 06:33N 47°39' W 122°20'0 0.0
2016-Jun-18 05:33N 47°39' W 122°20'0 0.0
2016-Jun-18 04:33N 47°39' W 122°20'0 0.0
2016-Jun-18 03:32N 47°39' W 122°20'0 0.0
2016-Jun-18 02:33N 47°39' W 122°20'0 0.0
2016-Jun-18 01:32N 47°39' W 122°20'0 0.0
2016-Jun-18 00:32N 47°39' W 122°20'0 0.0
2016-Jun-17 23:32N 47°39' W 122°20'0 0.0
2016-Jun-17 22:33N 47°39' W 122°20'0 0.0
2016-Jun-17 21:33N 47°39' W 122°20'0 0.0
2016-Jun-17 20:32N 47°39' W 122°20'0 0.0
2016-Jun-17 19:33N 47°39' W 122°20'0 0.0
2016-Jun-17 18:33N 47°39' W 122°20'0 0.0
2016-Jun-17 17:33N 47°39' W 122°20'0 0.0
2016-Jun-17 16:34N 47°39' W 122°20'0 0.0
2016-Jun-17 15:33N 47°39' W 122°20'0 0.0
2016-Jun-17 14:33N 47°39' W 122°20'0 0.0
2016-Jun-17 13:33N 47°39' W 122°20'0 0.0
2016-Jun-17 12:33N 47°39' W 122°20'0 0.0
2016-Jun-17 11:33N 47°39' W 122°20'0 0.0
2016-Jun-17 10:33N 47°39' W 122°20'0 0.0
2016-Jun-17 09:33N 47°39' W 122°20'0 0.0
2016-Jun-17 08:33N 47°39' W 122°20'0 0.0
2016-Jun-17 07:33N 47°39' W 122°20'0 0.0
2016-Jun-17 06:33N 47°39' W 122°20'0 0.0
2016-Jun-17 05:33N 47°39' W 122°20'0 0.0
2016-Jun-17 04:33N 47°39' W 122°20'0 0.0
2016-Jun-17 03:33N 47°39' W 122°20'0 0.0
2016-Jun-17 02:25N 47°39' W 122°20'0 0.0
2016-Jun-17 01:30N 47°39' W 122°20'0 0.0
2016-Jun-17 00:33N 47°39' W 122°20'0 0.0
2016-Jun-16 23:33N 47°39' W 122°20'1 1.4
2016-Jun-16 22:30N 47°39' W 122°18'2 2.4
2016-Jun-16 21:33N 47°38' W 122°15'1 0.8
2016-Jun-16 20:33N 47°38' W 122°16'0 0.2
2016-Jun-16 19:24N 47°39' W 122°16'0 0.0
2016-Jun-16 18:31N 47°39' W 122°16'0 0.0
2016-Jun-16 17:14N 47°38' W 122°16'1 1.6
2016-Jun-16 16:33N 47°38' W 122°15'1 0.9
2016-Jun-16 15:33N 47°38' W 122°16'0 0.2
2016-Jun-16 14:32N 47°39' W 122°16'1 1.1
2016-Jun-16 13:34N 47°39' W 122°15'1 1.0
2016-Jun-16 12:32N 47°38' W 122°16'3 2.8
2016-Jun-16 11:33N 47°39' W 122°20'0 0.0
2016-Jun-16 10:33N 47°39' W 122°20'0 0.0
2016-Jun-16 09:33N 47°39' W 122°20'0 0.0
2016-Jun-16 08:32N 47°39' W 122°20'0 0.0
2016-Jun-16 07:33N 47°39' W 122°20'0 0.0
2016-Jun-16 06:33N 47°39' W 122°20'0 0.0
2016-Jun-16 05:33N 47°39' W 122°20'0 0.0
2016-Jun-16 04:33N 47°39' W 122°20'0 0.0
2016-Jun-16 03:33N 47°39' W 122°20'0 0.0
2016-Jun-16 02:33N 47°39' W 122°20'0 0.0
2016-Jun-16 01:33N 47°39' W 122°20'0 0.0
2016-Jun-16 00:33N 47°39' W 122°20'0 0.0
2016-Jun-15 23:33N 47°39' W 122°20'0 0.0
2016-Jun-15 22:33N 47°39' W 122°20'0 0.0
2016-Jun-15 21:33N 47°39' W 122°20'  
Track history (hours):
 
Tides and Currents Weather Stations Pressure Air Temp Water Temp Dewpoint Dewpoint Depression Visibility Wind Speed Wind Dir Waves Ship Positions

Solana

Owner: TAURUS MARINE, SAN FRANCISCO, CA. More information available from US FCC via Universal Licensing System and Coast Guard Vessel Documentation Center.

Last reported at 2016-Jun-25 20:33 UTC. Time now 2016-Jun-26 08:27 UTC.
Position N 47°34' W 122°21'.

Length 21 m; draft 3 m.

Type: Tug. MMSI: 366969740.

Date/timePositionNaut miles runAvg speedWind from/ knotsBaromVisibWave heightAir tempDewpointWater temp
2016-Jun-25 20:33N 47°34' W 122°21'3 2.5
2016-Jun-25 19:33N 47°36' W 122°23'4 4.4
2016-Jun-25 18:33N 47°40' W 122°26'2 1.5
2016-Jun-25 17:33N 47°40' W 122°24'2 1.8
2016-Jun-25 16:33N 47°39' W 122°22'4 3.6
2016-Jun-25 15:32N 47°39' W 122°16'2 2.1
2016-Jun-25 14:29N 47°39' W 122°19'1 0.9
2016-Jun-25 13:33N 47°39' W 122°20'0 0.0
2016-Jun-25 12:33N 47°39' W 122°20'0 0.0
2016-Jun-25 11:33N 47°39' W 122°20'0 0.0
2016-Jun-25 10:33N 47°39' W 122°20'0 0.0
2016-Jun-25 09:33N 47°39' W 122°20'0 0.0
2016-Jun-25 08:33N 47°39' W 122°20'0 0.0
2016-Jun-25 07:33N 47°39' W 122°20'0 0.0
2016-Jun-25 06:33N 47°39' W 122°20'0 0.0
2016-Jun-25 05:31N 47°39' W 122°20'0 0.0
2016-Jun-25 04:28N 47°39' W 122°20'0 0.0
2016-Jun-25 03:33N 47°39' W 122°20'0 0.0
2016-Jun-25 02:33N 47°39' W 122°20'0 0.0
2016-Jun-25 01:33N 47°39' W 122°20'0 0.0
2016-Jun-25 00:32N 47°39' W 122°20'2 1.7
2016-Jun-24 23:33N 47°39' W 122°18'2 2.4
2016-Jun-24 22:33N 47°38' W 122°15'0 0.0
2016-Jun-24 21:33N 47°38' W 122°15'3 2.7
2016-Jun-24 20:33N 47°41' W 122°15'4 4.1
2016-Jun-24 19:33N 47°45' W 122°16'1 1.0
2016-Jun-24 18:33N 47°44' W 122°16'5 5.1
2016-Jun-24 17:33N 47°39' W 122°16'1 0.8
2016-Jun-24 16:33N 47°39' W 122°15'0 0.4
2016-Jun-24 15:33N 47°38' W 122°15'1 0.6
2016-Jun-24 14:33N 47°38' W 122°15'0 0.0
2016-Jun-24 13:31N 47°38' W 122°15'1 0.7
2016-Jun-24 12:33N 47°39' W 122°15'3 3.4
2016-Jun-24 11:33N 47°39' W 122°20'0 0.0
2016-Jun-24 10:33N 47°39' W 122°20'0 0.0
2016-Jun-24 09:33N 47°39' W 122°20'0 0.0
2016-Jun-24 08:33N 47°39' W 122°20'1 1.0
2016-Jun-24 07:33N 47°39' W 122°22'9 3.0
2016-Jun-24 04:34N 47°34' W 122°32'6 6.4
2016-Jun-24 03:33N 47°39' W 122°28'8 7.8
2016-Jun-24 02:34N 47°47' W 122°25'8 8.1
2016-Jun-24 01:34N 47°55' W 122°21'7 7.1
2016-Jun-24 00:33N 48°02' W 122°22'18 3.5
2016-Jun-23 19:12N 48°17' W 122°37'0 0.0
2016-Jun-23 18:32N 48°17' W 122°37'0 0.0
2016-Jun-23 17:33N 48°17' W 122°37'0 0.0
2016-Jun-23 16:26N 48°17' W 122°37'0 0.0
2016-Jun-23 14:22N 48°17' W 122°37'8 2.6
2016-Jun-23 11:21N 48°10' W 122°33'4 4.7
2016-Jun-23 10:25N 48°06' W 122°29'5 5.8
2016-Jun-23 09:33N 48°03' W 122°23'5 5.3
2016-Jun-23 08:34N 47°58' W 122°20'5 4.8
2016-Jun-23 07:34N 47°54' W 122°22'11 5.4
2016-Jun-23 05:33N 47°43' W 122°26'7 6.5
2016-Jun-23 04:34N 47°37' W 122°27'5 4.6
2016-Jun-23 03:33N 47°34' W 122°32'7 6.6
2016-Jun-23 02:34N 47°39' W 122°27'3 3.4
2016-Jun-23 01:33N 47°39' W 122°22'2 2.0
2016-Jun-23 00:26N 47°39' W 122°18'2 2.3
2016-Jun-22 23:32N 47°39' W 122°15'0 0.0
2016-Jun-22 22:33N 47°39' W 122°15'1 0.6
2016-Jun-22 21:33N 47°38' W 122°15'0 0.4
2016-Jun-22 20:31N 47°38' W 122°15'0 0.3
2016-Jun-22 19:24N 47°39' W 122°15'0 0.1
2016-Jun-22 18:33N 47°39' W 122°15'0 0.3
2016-Jun-22 17:28N 47°39' W 122°15'0 0.4
2016-Jun-22 16:33N 47°39' W 122°15'0 0.2
2016-Jun-22 15:32N 47°39' W 122°15'0 0.2
2016-Jun-22 14:33N 47°39' W 122°15'0 0.0
2016-Jun-22 13:33N 47°39' W 122°15'2 1.5
2016-Jun-22 12:30N 47°39' W 122°17'2 2.6
2016-Jun-22 11:34N 47°39' W 122°20'0 0.0
2016-Jun-22 10:33N 47°39' W 122°20'0 0.0
2016-Jun-22 09:33N 47°39' W 122°20'0 0.0
2016-Jun-22 08:33N 47°39' W 122°20'0 0.0
2016-Jun-22 07:33N 47°39' W 122°20'0 0.0
2016-Jun-22 06:33N 47°39' W 122°20'0 0.0
2016-Jun-22 05:33N 47°39' W 122°20'0 0.0
2016-Jun-22 04:33N 47°39' W 122°20'0 0.0
2016-Jun-22 03:33N 47°39' W 122°20'0 0.0
2016-Jun-22 02:33N 47°39' W 122°20'0 0.0
2016-Jun-22 01:33N 47°39' W 122°20'0 0.0
2016-Jun-22 00:33N 47°39' W 122°20'0 0.0
2016-Jun-21 23:33N 47°39' W 122°20'0 0.0
2016-Jun-21 22:32N 47°39' W 122°20'0 0.0
2016-Jun-21 21:33N 47°39' W 122°20'0 0.0
2016-Jun-21 20:33N 47°39' W 122°20'1 0.9
2016-Jun-21 19:33N 47°39' W 122°19'3 3.2
2016-Jun-21 18:33N 47°38' W 122°15'0 0.4
2016-Jun-21 17:33N 47°38' W 122°15'0 0.2
2016-Jun-21 16:33N 47°38' W 122°15'4 4.0
2016-Jun-21 15:33N 47°39' W 122°20'0 0.0
2016-Jun-21 14:33N 47°39' W 122°20'0 0.0
2016-Jun-21 13:33N 47°39' W 122°20'0 0.0
2016-Jun-21 12:33N 47°39' W 122°20'0 0.0
2016-Jun-21 11:33N 47°39' W 122°20'0 0.0
2016-Jun-21 10:33N 47°39' W 122°20'0 0.0
2016-Jun-21 09:33N 47°39' W 122°20'0 0.0
2016-Jun-21 08:33N 47°39' W 122°20'0 0.0
2016-Jun-21 07:34N 47°39' W 122°20'0 0.0
2016-Jun-21 05:33N 47°39' W 122°20'0 0.0
2016-Jun-21 04:33N 47°39' W 122°20'0 0.0
2016-Jun-21 03:33N 47°39' W 122°20'0 0.0
2016-Jun-21 02:33N 47°39' W 122°20'0 0.0
2016-Jun-21 01:33N 47°39' W 122°20'0 0.0
2016-Jun-21 00:33N 47°39' W 122°20'3 2.7
2016-Jun-20 23:32N 47°38' W 122°16'1 1.2
2016-Jun-20 22:33N 47°38' W 122°15'0 0.1
2016-Jun-20 21:33N 47°38' W 122°15'0 0.1
2016-Jun-20 20:33N 47°38' W 122°15'0 0.1
2016-Jun-20 19:33N 47°38' W 122°15'0 0.1
2016-Jun-20 18:33N 47°38' W 122°15'0 0.1
2016-Jun-20 17:30N 47°38' W 122°15'0 0.0
2016-Jun-20 16:33N 47°38' W 122°15'1 1.1
2016-Jun-20 15:33N 47°39' W 122°16'1 0.8
2016-Jun-20 14:33N 47°39' W 122°15'1 0.8
2016-Jun-20 13:33N 47°38' W 122°15'2 1.6
2016-Jun-20 12:32N 47°39' W 122°17'2 2.4
2016-Jun-20 11:33N 47°39' W 122°20'0 0.0
2016-Jun-20 10:33N 47°39' W 122°20'0 0.0
2016-Jun-20 09:34N 47°39' W 122°20'0 0.0
2016-Jun-20 08:33N 47°39' W 122°20'0 0.0
2016-Jun-20 07:33N 47°39' W 122°20'0 0.0
2016-Jun-20 06:33N 47°39' W 122°20'0 0.0
2016-Jun-20 05:33N 47°39' W 122°20'0 0.0
2016-Jun-20 04:32N 47°39' W 122°20'0 0.0
2016-Jun-20 03:33N 47°39' W 122°20'0 0.0
2016-Jun-20 02:33N 47°39' W 122°20'0 0.0
2016-Jun-20 01:33N 47°39' W 122°20'0 0.0
2016-Jun-20 00:33N 47°39' W 122°20'0 0.0
2016-Jun-19 23:33N 47°39' W 122°20'0 0.0
2016-Jun-19 22:32N 47°39' W 122°20'0 0.0
2016-Jun-19 21:32N 47°39' W 122°20'0 0.0
2016-Jun-19 20:33N 47°39' W 122°20'0 0.0
2016-Jun-19 19:33N 47°39' W 122°20'0 0.0
2016-Jun-19 18:33N 47°39' W 122°20'0 0.0
2016-Jun-19 17:33N 47°39' W 122°20'0 0.0
2016-Jun-19 16:33N 47°39' W 122°20'0 0.0
2016-Jun-19 15:33N 47°39' W 122°20'0 0.0
2016-Jun-19 14:33N 47°39' W 122°20'0 0.0
2016-Jun-19 13:33N 47°39' W 122°20'0 0.0
2016-Jun-19 12:33N 47°39' W 122°20'0 0.0
2016-Jun-19 11:33N 47°39' W 122°20'0 0.0
2016-Jun-19 10:33N 47°39' W 122°20'0 0.0
2016-Jun-19 09:33N 47°39' W 122°20'0 0.0
2016-Jun-19 08:33N 47°39' W 122°20'0 0.0
2016-Jun-19 07:33N 47°39' W 122°20'0 0.0
2016-Jun-19 06:33N 47°39' W 122°20'0 0.0
2016-Jun-19 05:33N 47°39' W 122°20'0 0.0
2016-Jun-19 04:33N 47°39' W 122°20'0 0.0
2016-Jun-19 03:33N 47°39' W 122°20'4 3.7
2016-Jun-19 02:31N 47°38' W 122°15'1 0.9
2016-Jun-19 01:33N 47°38' W 122°16'1 1.0
2016-Jun-19 00:33N 47°38' W 122°15'0 0.0
2016-Jun-18 23:32N 47°38' W 122°15'0 0.0
2016-Jun-18 22:30N 47°38' W 122°15'0 0.1
2016-Jun-18 21:33N 47°38' W 122°15'0 0.0
2016-Jun-18 20:33N 47°38' W 122°15'1 0.7
2016-Jun-18 19:33N 47°39' W 122°15'4 4.4
2016-Jun-18 18:33N 47°43' W 122°16'4 4.1
2016-Jun-18 17:34N 47°39' W 122°15'1 0.7
2016-Jun-18 16:33N 47°39' W 122°16'1 0.8
2016-Jun-18 15:31N 47°38' W 122°15'0 0.3
2016-Jun-18 14:33N 47°38' W 122°15'0 0.2
2016-Jun-18 13:33N 47°38' W 122°15'2 1.5
2016-Jun-18 12:33N 47°39' W 122°17'2 2.5
2016-Jun-18 11:33N 47°39' W 122°20'0 0.0
2016-Jun-18 10:33N 47°39' W 122°20'0 0.0
2016-Jun-18 09:32N 47°39' W 122°20'0 0.0
2016-Jun-18 08:33N 47°39' W 122°20'0 0.0
2016-Jun-18 07:32N 47°39' W 122°20'0 0.0
2016-Jun-18 06:33N 47°39' W 122°20'0 0.0
2016-Jun-18 05:33N 47°39' W 122°20'0 0.0
2016-Jun-18 04:33N 47°39' W 122°20'0 0.0
2016-Jun-18 03:32N 47°39' W 122°20'0 0.0
2016-Jun-18 02:33N 47°39' W 122°20'0 0.0
2016-Jun-18 01:32N 47°39' W 122°20'0 0.0
2016-Jun-18 00:32N 47°39' W 122°20'0 0.0
2016-Jun-17 23:32N 47°39' W 122°20'0 0.0
2016-Jun-17 22:33N 47°39' W 122°20'0 0.0
2016-Jun-17 21:33N 47°39' W 122°20'0 0.0
2016-Jun-17 20:32N 47°39' W 122°20'0 0.0
2016-Jun-17 19:33N 47°39' W 122°20'0 0.0
2016-Jun-17 18:33N 47°39' W 122°20'0 0.0
2016-Jun-17 17:33N 47°39' W 122°20'0 0.0
2016-Jun-17 16:34N 47°39' W 122°20'0 0.0
2016-Jun-17 15:33N 47°39' W 122°20'0 0.0
2016-Jun-17 14:33N 47°39' W 122°20'0 0.0
2016-Jun-17 13:33N 47°39' W 122°20'0 0.0
2016-Jun-17 12:33N 47°39' W 122°20'0 0.0
2016-Jun-17 11:33N 47°39' W 122°20'0 0.0
2016-Jun-17 10:33N 47°39' W 122°20'0 0.0
2016-Jun-17 09:33N 47°39' W 122°20'0 0.0
2016-Jun-17 08:33N 47°39' W 122°20'0 0.0
2016-Jun-17 07:33N 47°39' W 122°20'0 0.0
2016-Jun-17 06:33N 47°39' W 122°20'0 0.0
2016-Jun-17 05:33N 47°39' W 122°20'0 0.0
2016-Jun-17 04:33N 47°39' W 122°20'0 0.0
2016-Jun-17 03:33N 47°39' W 122°20'0 0.0
2016-Jun-17 02:25N 47°39' W 122°20'0 0.0
2016-Jun-17 01:30N 47°39' W 122°20'0 0.0
2016-Jun-17 00:33N 47°39' W 122°20'0 0.0
2016-Jun-16 23:33N 47°39' W 122°20'1 1.4
2016-Jun-16 22:30N 47°39' W 122°18'2 2.4
2016-Jun-16 21:33N 47°38' W 122°15'1 0.8
2016-Jun-16 20:33N 47°38' W 122°16'0 0.2
2016-Jun-16 19:24N 47°39' W 122°16'0 0.0
2016-Jun-16 18:31N 47°39' W 122°16'0 0.0
2016-Jun-16 17:14N 47°38' W 122°16'1 1.6
2016-Jun-16 16:33N 47°38' W 122°15'1 0.9
2016-Jun-16 15:33N 47°38' W 122°16'0 0.2
2016-Jun-16 14:32N 47°39' W 122°16'1 1.1
2016-Jun-16 13:34N 47°39' W 122°15'1 1.0
2016-Jun-16 12:32N 47°38' W 122°16'3 2.8
2016-Jun-16 11:33N 47°39' W 122°20'0 0.0
2016-Jun-16 10:33N 47°39' W 122°20'0 0.0
2016-Jun-16 09:33N 47°39' W 122°20'0 0.0
2016-Jun-16 08:32N 47°39' W 122°20'0 0.0
2016-Jun-16 07:33N 47°39' W 122°20'0 0.0
2016-Jun-16 06:33N 47°39' W 122°20'0 0.0
2016-Jun-16 05:33N 47°39' W 122°20'0 0.0
2016-Jun-16 04:33N 47°39' W 122°20'0 0.0
2016-Jun-16 03:33N 47°39' W 122°20'0 0.0
2016-Jun-16 02:33N 47°39' W 122°20'0 0.0
2016-Jun-16 01:33N 47°39' W 122°20'0 0.0
2016-Jun-16 00:33N 47°39' W 122°20'0 0.0
2016-Jun-15 23:33N 47°39' W 122°20'0 0.0
2016-Jun-15 22:33N 47°39' W 122°20'0 0.0
2016-Jun-15 21:33N 47°39' W 122°20'  

Dump ship's entire track history